Jungle Queen — DNNN — position and weather

sailwx.info

Track history (hours):
 
Tides and Currents Weather Stations Pressure Air Temp Water Temp Dewpoint Dewpoint Depression Visibility Wind Speed Wind Dir Waves Ship Positions

Jungle Queen

Last reported at 2017-Aug-24 14:27 UTC. Time now 2017-Sep-23 00:27 UTC.
Position N 37°56' E 023°39'.
Warning: this ship's position is 29 days out of date.

Length 20 m.

Type: Sailing vessel. MMSI: 211345520.

Date/timePositionNaut miles runAvg speedWind from/ knotsBaromVisibWave heightAir tempDewpointWater temp
2017-Aug-24 14:27N 37°56' E 023°39'1 1.1
2017-Aug-24 14:00N 37°56' E 023°39'3 5.2
2017-Aug-24 13:30N 37°54' E 023°37'2 4.3
2017-Aug-24 13:00N 37°53' E 023°35'3 5.2
2017-Aug-24 12:30N 37°51' E 023°32'3 5.3
2017-Aug-24 12:00N 37°50' E 023°29'3 6.0
2017-Aug-24 11:30N 37°48' E 023°26'3 6.1
2017-Aug-24 11:00N 37°46' E 023°23'9 0.2
2017-Aug-22 10:47N 37°39' E 023°18'3 6.1
2017-Aug-22 10:19N 37°39' E 023°21'  
2017-Aug-15 09:52N 37°38' E 023°24'  
Track history (hours):
 
Tides and Currents Weather Stations Pressure Air Temp Water Temp Dewpoint Dewpoint Depression Visibility Wind Speed Wind Dir Waves Ship Positions

Jungle Queen

Last reported at 2017-Aug-24 14:27 UTC. Time now 2017-Sep-23 00:27 UTC.
Position N 37°56' E 023°39'.
Warning: this ship's position is 29 days out of date.

Length 20 m.

Type: Sailing vessel. MMSI: 211345520.

Date/timePositionNaut miles runAvg speedWind from/ knotsBaromVisibWave heightAir tempDewpointWater temp
2017-Aug-24 14:27N 37°56' E 023°39'1 1.1
2017-Aug-24 14:00N 37°56' E 023°39'3 5.2
2017-Aug-24 13:30N 37°54' E 023°37'2 4.3
2017-Aug-24 13:00N 37°53' E 023°35'3 5.2
2017-Aug-24 12:30N 37°51' E 023°32'3 5.3
2017-Aug-24 12:00N 37°50' E 023°29'3 6.0
2017-Aug-24 11:30N 37°48' E 023°26'3 6.1
2017-Aug-24 11:00N 37°46' E 023°23'9 0.2
2017-Aug-22 10:47N 37°39' E 023°18'3 6.1
2017-Aug-22 10:19N 37°39' E 023°21'  
2017-Aug-15 09:52N 37°38' E 023°24'  

Dump ship's entire track history